Hlavní strana
METAR-TAF:

METAR-TAF

Letiště :

Letiště Bologna

Bologna, Itálie

zeměpisná šířka: 44-32N, zeměpisná délka: 011-18E, výška: 36 m

Aktuální stav počasí

Zpráva byla vytvořena před 22 minutami, v 07:20 UTC
Západojihozápadní vítr 3 kt
Teplota -3°C
Vlhkost vzduchu 93%
Tlak 1020 hPa
Viditelnost 10 km a více
Žádná oblačnost pod 1500 m, nevyskytují se cumulonimby.

METAR: LIPE 150720Z 25003KT CAVOK M03/M04 Q1020

Čas: 08:42 (07:42 UTC)

Předpověď počasí

Zpráva byla vytvořena před 2 hodinami a 42 minutami, v 05:00 UTC
Předpověď platná od 15 v 06 UTC do 16 v 06 UTC
Západní vítr 7 kt
Viditelnost 10 km a více
Žádná oblačnost pod 1500 m, nevyskytují se cumulonimby.

TAF: LIPE 150500Z 1506/1606 28007KT CAVOK

Stav a předpovědi počasí z více než 4 000 letišť (zprávy METAR a TAF).

Červené a žluté tečky na mapě představují dostupné meteorologické stanice.

Když kurzor umístíte na tečku, zobrazí se název stanice.

Pak kliknutím zobrazíte stav a předpověď počasí.

Chcete-li změnit mapu, kliknutím na zelené tlačítko se znaménkem +mapu přiblížíte, kliknutím na zelené tlačítko se znaménkem – mapu oddálíte a kliknutím na zelené šipky přejdete na sousední mapy.


METAR-TAF: